Time,TemperatureF,DewpointF,PressureIn,WindDirection,WindDirectionDegrees,WindSpeedMPH,WindSpeedGustMPH,Humidity,HourlyPrecipIn,Conditions,Clouds,dailyrainin,SolarRadiationWatts/m^2,SoftwareType,DateUTC
2013-01-23 00:02:00,51.0,10.0,-100.00,East,100,5.0,9.0,19,0.00,,,0.00,0.000000,,2013-01-23 08:02:00,
2013-01-23 00:33:00,51.0,10.0,-100.00,East,100,5.0,9.0,19,0.00,,,0.00,0.000000,,2013-01-23 08:33:00,
2013-01-23 00:43:00,51.0,10.0,-100.00,East,100,5.0,9.0,19,0.00,,,0.00,0.000000,,2013-01-23 08:43:00,
2013-01-23 00:53:00,51.0,10.0,-100.00,East,100,5.0,9.0,19,0.00,,,0.00,0.000000,,2013-01-23 08:53:00,
2013-01-23 01:02:00,54.0,13.0,-100.00,SE,125,5.0,11.0,19,0.00,,,0.00,0.000000,,2013-01-23 09:02:00,
2013-01-23 01:23:00,54.0,13.0,-100.00,SE,125,5.0,11.0,19,0.00,,,0.00,0.000000,,2013-01-23 09:23:00,
2013-01-23 01:33:00,54.0,13.0,-100.00,SE,125,5.0,11.0,19,0.00,,,0.00,0.000000,,2013-01-23 09:33:00,
2013-01-23 01:43:00,54.0,13.0,-100.00,SE,125,5.0,11.0,19,0.00,,,0.00,0.000000,,2013-01-23 09:43:00,
2013-01-23 01:53:00,54.0,13.0,-100.00,SE,125,5.0,11.0,19,0.00,,,0.00,0.000000,,2013-01-23 09:53:00,
2013-01-23 02:02:00,55.0,20.0,-100.00,SE,130,6.0,13.0,25,0.00,,,0.00,0.000000,,2013-01-23 10:02:00,
2013-01-23 02:23:00,55.0,20.0,-100.00,SE,130,6.0,13.0,25,0.00,,,0.00,0.000000,,2013-01-23 10:23:00,
2013-01-23 02:33:00,55.0,20.0,-100.00,SE,130,6.0,13.0,25,0.00,,,0.00,0.000000,,2013-01-23 10:33:00,
2013-01-23 02:43:00,55.0,20.0,-100.00,SE,130,6.0,13.0,25,0.00,,,0.00,0.000000,,2013-01-23 10:43:00,
2013-01-23 02:53:00,55.0,20.0,-100.00,SE,130,6.0,13.0,25,0.00,,,0.00,0.000000,,2013-01-23 10:53:00,
2013-01-23 03:02:00,56.0,23.0,-100.00,SE,139,7.0,13.0,28,0.00,,,0.00,0.000000,,2013-01-23 11:02:00,
2013-01-23 03:23:00,56.0,23.0,-100.00,SE,139,7.0,13.0,28,0.00,,,0.00,0.000000,,2013-01-23 11:23:00,
2013-01-23 03:34:00,56.0,23.0,-100.00,SE,139,7.0,13.0,28,0.00,,,0.00,0.000000,,2013-01-23 11:34:00,
2013-01-23 03:43:00,56.0,23.0,-100.00,SE,139,7.0,13.0,28,0.00,,,0.00,0.000000,,2013-01-23 11:43:00,
2013-01-23 03:53:00,56.0,23.0,-100.00,SE,139,7.0,13.0,28,0.00,,,0.00,0.000000,,2013-01-23 11:53:00,
2013-01-23 04:02:00,55.0,27.0,-100.00,SSE,158,7.0,14.0,34,0.00,,,0.00,0.000000,,2013-01-23 12:02:00,
2013-01-23 04:23:00,55.0,27.0,-100.00,SSE,158,7.0,14.0,34,0.00,,,0.00,0.000000,,2013-01-23 12:23:00,
2013-01-23 04:33:00,55.0,27.0,-100.00,SSE,158,7.0,14.0,34,0.00,,,0.00,0.000000,,2013-01-23 12:33:00,
2013-01-23 04:43:00,55.0,27.0,-100.00,SSE,158,7.0,14.0,34,0.00,,,0.00,0.000000,,2013-01-23 12:43:00,
2013-01-23 04:53:00,55.0,27.0,-100.00,SSE,158,7.0,14.0,34,0.00,,,0.00,0.000000,,2013-01-23 12:53:00,
2013-01-23 05:02:00,55.0,29.0,-100.00,SSE,149,7.0,13.0,37,0.00,,,0.00,0.000000,,2013-01-23 13:02:00,
2013-01-23 05:23:00,55.0,29.0,-100.00,SSE,149,7.0,13.0,37,0.00,,,0.00,0.000000,,2013-01-23 13:23:00,
2013-01-23 05:33:00,55.0,29.0,-100.00,SSE,149,7.0,13.0,37,0.00,,,0.00,0.000000,,2013-01-23 13:33:00,
2013-01-23 05:43:00,55.0,29.0,-100.00,SSE,149,7.0,13.0,37,0.00,,,0.00,0.000000,,2013-01-23 13:43:00,
2013-01-23 05:53:00,55.0,29.0,-100.00,SSE,149,7.0,13.0,37,0.00,,,0.00,0.000000,,2013-01-23 13:53:00,
2013-01-23 06:02:00,55.0,30.0,-100.00,SSE,157,8.0,14.0,38,0.00,,,0.00,0.000000,,2013-01-23 14:02:00,
2013-01-23 06:23:00,55.0,30.0,-100.00,SSE,157,8.0,14.0,38,0.00,,,0.00,0.000000,,2013-01-23 14:23:00,
2013-01-23 06:33:00,55.0,30.0,-100.00,SSE,157,8.0,14.0,38,0.00,,,0.00,0.000000,,2013-01-23 14:33:00,
2013-01-23 06:43:00,55.0,30.0,-100.00,SSE,157,8.0,14.0,38,0.00,,,0.00,0.000000,,2013-01-23 14:43:00,
2013-01-23 06:53:00,55.0,30.0,-100.00,SSE,157,8.0,14.0,38,0.00,,,0.00,0.000000,,2013-01-23 14:53:00,
2013-01-23 07:02:00,56.0,30.0,-100.00,SSE,164,4.0,15.0,37,0.00,,,0.00,0.000000,,2013-01-23 15:02:00,
2013-01-23 07:23:00,56.0,30.0,-100.00,SSE,164,4.0,15.0,37,0.00,,,0.00,0.000000,,2013-01-23 15:23:00,
2013-01-23 07:33:00,56.0,30.0,-100.00,SSE,164,4.0,15.0,37,0.00,,,0.00,0.000000,,2013-01-23 15:33:00,
2013-01-23 07:43:00,56.0,30.0,-100.00,SSE,164,4.0,15.0,37,0.00,,,0.00,0.000000,,2013-01-23 15:43:00,
2013-01-23 07:53:00,56.0,30.0,-100.00,SSE,164,4.0,15.0,37,0.00,,,0.00,0.000000,,2013-01-23 15:53:00,
2013-01-23 08:02:00,56.0,31.0,-100.00,SE,144,6.0,11.0,39,0.00,,,0.00,20.000000,,2013-01-23 16:02:00,
2013-01-23 08:23:00,56.0,31.0,-100.00,SE,144,6.0,11.0,39,0.00,,,0.00,20.000000,,2013-01-23 16:23:00,
2013-01-23 08:33:00,56.0,31.0,-100.00,SE,144,6.0,11.0,39,0.00,,,0.00,20.000000,,2013-01-23 16:33:00,
2013-01-23 08:43:00,56.0,31.0,-100.00,SE,144,6.0,11.0,39,0.00,,,0.00,20.000000,,2013-01-23 16:43:00,
2013-01-23 08:53:00,56.0,31.0,-100.00,SE,144,6.0,11.0,39,0.00,,,0.00,20.000000,,2013-01-23 16:53:00,
2013-01-23 09:02:00,56.0,31.0,-100.00,SSE,148,4.0,11.0,38,0.00,,,0.00,93.000000,,2013-01-23 17:02:00,
2013-01-23 09:23:00,56.0,31.0,-100.00,SSE,148,4.0,11.0,38,0.00,,,0.00,93.000000,,2013-01-23 17:23:00,
2013-01-23 09:34:00,56.0,31.0,-100.00,SSE,148,4.0,11.0,38,0.00,,,0.00,93.000000,,2013-01-23 17:34:00,
2013-01-23 09:43:00,56.0,31.0,-100.00,SSE,148,4.0,11.0,38,0.00,,,0.00,93.000000,,2013-01-23 17:43:00,
2013-01-23 09:53:00,56.0,31.0,-100.00,SSE,148,4.0,11.0,38,0.00,,,0.00,93.000000,,2013-01-23 17:53:00,
2013-01-23 10:02:00,64.0,27.0,-100.00,SE,124,6.0,15.0,25,0.00,,,0.00,435.000000,,2013-01-23 18:02:00,
2013-01-23 10:33:00,64.0,27.0,-100.00,SE,124,6.0,15.0,25,0.00,,,0.00,435.000000,,2013-01-23 18:33:00,
2013-01-23 10:44:00,64.0,27.0,-100.00,SE,124,6.0,15.0,25,0.00,,,0.00,435.000000,,2013-01-23 18:44:00,
2013-01-23 10:53:00,64.0,27.0,-100.00,SE,124,6.0,15.0,25,0.00,,,0.00,435.000000,,2013-01-23 18:53:00,
2013-01-23 11:02:00,61.0,29.0,-100.00,ESE,105,7.0,15.0,29,0.00,,,0.00,494.000000,,2013-01-23 19:02:00,
2013-01-23 11:33:00,61.0,29.0,-100.00,ESE,105,7.0,15.0,29,0.00,,,0.00,494.000000,,2013-01-23 19:33:00,
2013-01-23 11:43:00,61.0,29.0,-100.00,ESE,105,7.0,15.0,29,0.00,,,0.00,494.000000,,2013-01-23 19:43:00,
2013-01-23 11:53:00,61.0,29.0,-100.00,ESE,105,7.0,15.0,29,0.00,,,0.00,494.000000,,2013-01-23 19:53:00,
2013-01-23 12:02:00,64.0,30.0,-100.00,SE,134,7.0,20.0,28,0.00,,,0.00,706.000000,,2013-01-23 20:02:00,
2013-01-23 12:33:00,64.0,30.0,-100.00,SE,134,7.0,20.0,28,0.00,,,0.00,706.000000,,2013-01-23 20:33:00,
2013-01-23 12:43:00,64.0,30.0,-100.00,SE,134,7.0,20.0,28,0.00,,,0.00,706.000000,,2013-01-23 20:43:00,
2013-01-23 12:53:00,64.0,30.0,-100.00,SE,134,7.0,20.0,28,0.00,,,0.00,706.000000,,2013-01-23 20:53:00,
2013-01-23 13:02:00,62.0,29.0,-100.00,SE,145,8.0,17.0,28,0.00,,,0.00,511.000000,,2013-01-23 21:02:00,
2013-01-23 13:23:00,62.0,29.0,-100.00,SE,145,8.0,17.0,28,0.00,,,0.00,511.000000,,2013-01-23 21:23:00,
2013-01-23 13:33:00,62.0,29.0,-100.00,SE,145,8.0,17.0,28,0.00,,,0.00,511.000000,,2013-01-23 21:33:00,
2013-01-23 13:43:00,62.0,29.0,-100.00,SE,145,8.0,17.0,28,0.00,,,0.00,511.000000,,2013-01-23 21:43:00,
2013-01-23 13:53:00,62.0,29.0,-100.00,SE,145,8.0,17.0,28,0.00,,,0.00,511.000000,,2013-01-23 21:53:00,
2013-01-23 14:02:00,60.0,28.0,-100.00,SE,129,9.0,17.0,29,0.00,,,0.00,483.000000,,2013-01-23 22:02:00,
2013-01-23 14:23:00,60.0,28.0,-100.00,SE,129,9.0,17.0,29,0.00,,,0.00,483.000000,,2013-01-23 22:23:00,
2013-01-23 14:33:00,60.0,28.0,-100.00,SE,129,9.0,17.0,29,0.00,,,0.00,483.000000,,2013-01-23 22:33:00,
2013-01-23 14:43:00,60.0,28.0,-100.00,SE,129,9.0,17.0,29,0.00,,,0.00,483.000000,,2013-01-23 22:43:00,
2013-01-23 14:53:00,60.0,28.0,-100.00,SE,129,9.0,17.0,29,0.00,,,0.00,483.000000,,2013-01-23 22:53:00,
2013-01-23 15:02:00,58.0,27.0,-100.00,SE,127,6.0,16.0,30,0.00,,,0.00,382.000000,,2013-01-23 23:02:00,
2013-01-23 15:33:00,58.0,27.0,-100.00,SE,127,6.0,16.0,30,0.00,,,0.00,382.000000,,2013-01-23 23:33:00,
2013-01-23 15:43:00,58.0,27.0,-100.00,SE,127,6.0,16.0,30,0.00,,,0.00,382.000000,,2013-01-23 23:43:00,
2013-01-23 15:53:00,58.0,27.0,-100.00,SE,127,6.0,16.0,30,0.00,,,0.00,382.000000,,2013-01-23 23:53:00,
2013-01-23 16:02:00,56.0,27.0,-100.00,SSE,148,5.0,14.0,32,0.00,,,0.00,176.000000,,2013-01-24 00:02:00,
2013-01-23 16:33:00,56.0,27.0,-100.00,SSE,148,5.0,14.0,32,0.00,,,0.00,176.000000,,2013-01-24 00:33:00,
2013-01-23 16:43:00,56.0,27.0,-100.00,SSE,148,5.0,14.0,32,0.00,,,0.00,176.000000,,2013-01-24 00:43:00,
2013-01-23 16:53:00,56.0,27.0,-100.00,SSE,148,5.0,14.0,32,0.00,,,0.00,176.000000,,2013-01-24 00:53:00,
2013-01-23 17:02:00,53.0,28.0,-100.00,SE,134,5.0,10.0,38,0.00,,,0.00,54.000000,,2013-01-24 01:02:00,
2013-01-23 17:33:00,53.0,28.0,-100.00,SE,134,5.0,10.0,38,0.00,,,0.00,54.000000,,2013-01-24 01:33:00,
2013-01-23 17:43:00,53.0,28.0,-100.00,SE,134,5.0,10.0,38,0.00,,,0.00,54.000000,,2013-01-24 01:43:00,
2013-01-23 17:52:00,53.0,28.0,-100.00,SE,134,5.0,10.0,38,0.00,,,0.00,54.000000,,2013-01-24 01:52:00,
2013-01-23 18:02:00,51.0,26.0,-100.00,SE,131,6.0,12.0,38,0.00,,,0.00,1.000000,,2013-01-24 02:02:00,
2013-01-23 18:33:00,51.0,26.0,-100.00,SE,131,6.0,12.0,38,0.00,,,0.00,1.000000,,2013-01-24 02:33:00,
2013-01-23 18:42:00,51.0,26.0,-100.00,SE,131,6.0,12.0,38,0.00,,,0.00,1.000000,,2013-01-24 02:42:00,
2013-01-23 18:52:00,51.0,26.0,-100.00,SE,131,6.0,12.0,38,0.00,,,0.00,1.000000,,2013-01-24 02:52:00,
2013-01-23 19:02:00,49.0,23.0,-100.00,SE,132,6.0,14.0,35,0.00,,,0.00,0.000000,,2013-01-24 03:02:00,
2013-01-23 19:33:00,49.0,23.0,-100.00,SE,132,6.0,14.0,35,0.00,,,0.00,0.000000,,2013-01-24 03:33:00,
2013-01-23 19:43:00,49.0,23.0,-100.00,SE,132,6.0,14.0,35,0.00,,,0.00,0.000000,,2013-01-24 03:43:00,
2013-01-23 19:52:00,49.0,23.0,-100.00,SE,132,6.0,14.0,35,0.00,,,0.00,0.000000,,2013-01-24 03:52:00,
2013-01-23 20:02:00,49.0,25.0,-100.00,SE,135,8.0,16.0,39,0.00,,,0.00,0.000000,,2013-01-24 04:02:00,
2013-01-23 20:33:00,49.0,25.0,-100.00,SE,135,8.0,16.0,39,0.00,,,0.00,0.000000,,2013-01-24 04:33:00,
2013-01-23 20:43:00,49.0,25.0,-100.00,SE,135,8.0,16.0,39,0.00,,,0.00,0.000000,,2013-01-24 04:43:00,
2013-01-23 20:53:00,49.0,25.0,-100.00,SE,135,8.0,16.0,39,0.00,,,0.00,0.000000,,2013-01-24 04:53:00,
2013-01-23 21:02:00,48.0,31.0,-100.00,SE,142,6.0,16.0,52,0.00,,,0.00,0.000000,,2013-01-24 05:02:00,
2013-01-23 21:33:00,48.0,31.0,-100.00,SE,142,6.0,16.0,52,0.00,,,0.00,0.000000,,2013-01-24 05:33:00,
2013-01-23 21:43:00,48.0,31.0,-100.00,SE,142,6.0,16.0,52,0.00,,,0.00,0.000000,,2013-01-24 05:43:00,
2013-01-23 21:53:00,48.0,31.0,-100.00,SE,142,6.0,16.0,52,0.00,,,0.00,0.000000,,2013-01-24 05:53:00,
2013-01-23 22:02:00,51.0,34.0,-100.00,SSE,157,10.0,20.0,51,0.00,,,0.00,0.000000,,2013-01-24 06:02:00,
2013-01-23 22:32:00,51.0,34.0,-100.00,SSE,157,10.0,20.0,51,0.00,,,0.00,0.000000,,2013-01-24 06:32:00,
2013-01-23 22:42:00,51.0,34.0,-100.00,SSE,157,10.0,20.0,51,0.00,,,0.00,0.000000,,2013-01-24 06:42:00,
2013-01-23 22:52:00,51.0,34.0,-100.00,SSE,157,10.0,20.0,51,0.00,,,0.00,0.000000,,2013-01-24 06:52:00,
2013-01-23 23:02:00,44.0,32.0,-100.00,SSE,149,7.0,23.0,63,0.02,,,0.02,0.000000,,2013-01-24 07:02:00,
2013-01-23 23:23:00,44.0,32.0,-100.00,SSE,149,7.0,23.0,63,0.02,,,0.02,0.000000,,2013-01-24 07:23:00,
2013-01-23 23:33:00,44.0,32.0,-100.00,SSE,149,7.0,23.0,63,0.02,,,0.02,0.000000,,2013-01-24 07:33:00,
2013-01-23 23:43:00,44.0,32.0,-100.00,SSE,149,7.0,23.0,63,0.02,,,0.02,0.000000,,2013-01-24 07:43:00,
2013-01-23 23:53:00,44.0,32.0,-100.00,SSE,149,7.0,23.0,63,0.02,,,0.02,0.000000,,2013-01-24 07:53:00,